Time;durP1;ratioP1;P1;durP2;ratioP2;P2;SDS_P1;SDS_P2;PMS_P1;PMS_P2;Temp;Humidity;BMP_temperature;BMP_pressure;BME280_temperature;BME280_humidity;BME280_pressure;Samples;Min_cycle;Max_cycle;Signal;HPM_P1;HPM_P2
2022/04/25 00:01:25;;;;;;;0.60;0.60;;;;;;;8.66;100.00;95236.00;5048499;27;105054;-64
2022/04/25 00:03:52;;;;;;;0.70;0.70;;;;;;;8.65;100.00;95239.72;5066271;27;101866;-64
2022/04/25 00:06:19;;;;;;;0.60;0.60;;;;;;;8.67;100.00;95241.03;5050943;27;101830;-64
2022/04/25 00:08:48;;;;;;;0.60;0.60;;;;;;;8.67;100.00;95232.31;5048606;27;105185;-64
2022/04/25 00:11:15;;;;;;;0.50;0.50;;;;;;;8.71;100.00;95233.34;5049222;27;102060;-64
2022/04/25 00:13:42;;;;;;;0.40;0.40;;;;;;;8.68;100.00;95236.56;5049116;27;105397;-64
2022/04/25 00:16:09;;;;;;;0.30;0.30;;;;;;;8.69;100.00;95240.78;5048533;27;105360;-64
2022/04/25 00:18:37;;;;;;;0.30;0.30;;;;;;;8.71;100.00;95242.09;5052577;27;102521;-64
2022/04/25 00:21:04;;;;;;;0.30;0.30;;;;;;;8.72;100.00;95238.41;5084283;27;105501;-64
2022/04/25 00:23:31;;;;;;;0.30;0.30;;;;;;;8.73;100.00;95236.56;5069537;27;101854;-64
2022/04/25 00:26:00;;;;;;;0.93;0.40;;;;;;;8.74;100.00;95227.53;5069185;27;104939;-64
2022/04/25 00:28:27;;;;;;;1.30;0.30;;;;;;;8.80;100.00;95235.22;5068902;27;104051;-64
2022/04/25 00:30:54;;;;;;;0.30;0.30;;;;;;;8.83;100.00;95239.19;5070931;27;101806;-64
2022/04/25 00:33:21;;;;;;;0.40;0.40;;;;;;;8.78;100.00;95237.31;5086280;27;105043;-64
2022/04/25 00:35:48;;;;;;;0.30;0.30;;;;;;;8.79;100.00;95238.13;5068467;27;104372;-64
2022/04/25 00:38:16;;;;;;;1.07;0.40;;;;;;;8.78;100.00;95237.31;5069489;27;102051;-64
2022/04/25 00:40:44;;;;;;;0.30;0.30;;;;;;;8.78;100.00;95236.53;5089410;27;105097;-64
2022/04/25 00:43:13;;;;;;;0.30;0.30;;;;;;;8.74;100.00;95240.78;5086062;27;101765;-64
2022/04/25 00:45:40;;;;;;;0.30;0.30;;;;;;;8.74;100.00;95236.28;5069347;27;105681;-64
2022/04/25 00:48:07;;;;;;;0.30;0.30;;;;;;;8.75;100.00;95239.72;5068463;27;105565;-64
2022/04/25 00:50:34;;;;;;;0.30;0.30;;;;;;;8.75;100.00;95231.75;5086456;27;101849;-64
2022/04/25 00:53:03;;;;;;;0.30;0.30;;;;;;;8.73;100.00;95239.97;5069031;27;105162;-64
2022/04/25 00:55:30;;;;;;;0.30;0.30;;;;;;;8.76;100.00;95234.16;5069718;27;102619;-64
2022/04/25 00:57:59;;;;;;;0.40;0.40;;;;;;;8.73;100.00;95225.94;5070589;27;101899;-64
2022/04/25 01:00:28;;;;;;;0.40;0.40;;;;;;;8.73;100.00;95239.97;5068816;27;105090;-64
2022/04/25 01:02:56;;;;;;;0.40;0.40;;;;;;;8.71;100.00;95236.81;5073322;27;102647;-64
2022/04/25 01:05:23;;;;;;;0.30;0.30;;;;;;;8.71;100.00;95236.81;5068828;27;103757;-64
2022/04/25 01:07:50;;;;;;;0.37;0.37;;;;;;;8.70;100.00;95237.06;5085978;27;105366;-64
2022/04/25 01:10:18;;;;;;;0.30;0.30;;;;;;;8.65;100.00;95237.88;5070050;27;102195;-64
2022/04/25 01:12:45;;;;;;;1.70;0.30;;;;;;;8.70;100.00;95245.00;5089530;27;105202;-64
2022/04/25 01:15:14;;;;;;;0.93;0.30;;;;;;;8.68;100.00;95241.84;5071692;27;105639;-64
2022/04/25 01:17:44;;;;;;;0.87;0.30;;;;;;;8.68;100.00;95239.97;5072384;27;101835;-64
2022/04/25 01:20:11;;;;;;;0.30;0.30;;;;;;;8.68;100.00;95241.84;5060018;27;105587;-64
2022/04/25 01:22:42;;;;;;;0.20;0.20;;;;;;;8.66;100.00;95238.66;5051940;27;102541;-64
2022/04/25 01:27:56;;;;;;;0.40;0.40;;;;;;;8.62;100.00;95240.25;5051204;27;105205;-64
2022/04/25 01:30:23;;;;;;;0.43;0.40;;;;;;;8.61;100.00;95241.34;5051441;27;101887;-64
2022/04/25 01:32:50;;;;;;;0.40;0.30;;;;;;;8.58;100.00;95242.66;5068981;27;105134;-64
2022/04/25 01:35:17;;;;;;;0.30;0.30;;;;;;;8.57;100.00;95240.25;5051153;27;105277;-64
2022/04/25 01:37:44;;;;;;;0.93;0.30;;;;;;;8.56;100.00;95239.47;5051487;27;101745;-64
2022/04/25 01:40:13;;;;;;;0.40;0.40;;;;;;;8.56;100.00;95243.97;5052839;27;102562;-64
2022/04/25 01:42:42;;;;;;;0.20;0.20;;;;;;;8.55;100.00;95242.38;5051008;27;105207;-64
2022/04/25 01:45:09;;;;;;;0.30;0.30;;;;;;;8.52;100.00;95240.25;5051483;27;101892;-64
2022/04/25 01:47:37;;;;;;;0.30;0.30;;;;;;;8.53;100.00;95247.94;5071346;27;105615;-64
2022/04/25 01:50:05;;;;;;;0.30;0.30;;;;;;;8.53;100.00;95244.50;5051527;27;101978;-64
2022/04/25 01:52:34;;;;;;;0.30;0.30;;;;;;;8.54;100.00;95246.88;5052883;27;102464;-64
2022/04/25 01:55:03;;;;;;;0.30;0.30;;;;;;;8.57;100.00;95250.88;5050735;27;105352;-64
2022/04/25 01:57:31;;;;;;;0.20;0.20;;;;;;;8.55;100.00;95242.38;5051272;27;101859;-64
2022/04/25 01:59:58;;;;;;;0.30;0.30;;;;;;;8.51;100.00;95254.56;5051279;27;105477;-64
2022/04/25 02:02:26;;;;;;;0.20;0.20;;;;;;;8.53;100.00;95244.50;5050521;27;105252;-64
2022/04/25 02:04:53;;;;;;;0.30;0.30;;;;;;;8.52;100.00;95243.72;5052432;27;101820;-64
2022/04/25 02:07:21;;;;;;;0.77;0.30;;;;;;;8.52;100.00;95237.59;5054283;27;104856;-64
2022/04/25 02:09:48;;;;;;;0.20;0.20;;;;;;;8.55;100.00;95242.38;5068226;27;101860;-64
2022/04/25 02:12:15;;;;;;;0.30;0.30;;;;;;;8.55;100.00;95247.66;5067859;27;105445;-64
2022/04/25 02:14:45;;;;;;;0.77;0.20;;;;;;;8.52;100.00;95245.56;5067640;27;105115;-64
2022/04/25 02:17:13;;;;;;;0.30;0.30;;;;;;;8.50;100.00;95250.34;5051182;27;102028;-64
2022/04/25 02:19:40;;;;;;;1.03;0.90;;;;;;;8.54;100.00;95259.31;5049978;27;103631;-64
2022/04/25 02:22:09;;;;;;;1.13;0.30;;;;;;;8.56;100.00;95257.22;5049621;27;103755;-64
2022/04/25 02:24:36;;;;;;;0.43;0.30;;;;;;;8.58;100.00;95252.44;5052367;27;101762;-64
2022/04/25 02:27:04;;;;;;;0.30;0.30;;;;;;;8.54;100.00;95261.97;5050948;27;104848;-64
2022/04/25 02:29:31;;;;;;;0.23;0.23;;;;;;;8.55;100.00;95263.56;5053749;27;104984;-64
2022/04/25 02:32:01;;;;;;;0.20;0.20;;;;;;;8.53;100.00;95265.69;5052290;27;101657;-64
2022/04/25 02:34:29;;;;;;;0.20;0.20;;;;;;;8.55;100.00;95264.38;5050271;27;105486;-64
2022/04/25 02:36:56;;;;;;;0.30;0.30;;;;;;;8.55;100.00;95267.03;5050560;27;102274;-64
2022/04/25 02:39:24;;;;;;;0.40;0.40;;;;;;;8.55;100.00;95267.03;5050989;27;105076;-64
2022/04/25 02:41:51;;;;;;;0.40;0.40;;;;;;;8.56;100.00;95268.59;5051307;27;102603;-64
2022/04/25 02:44:18;;;;;;;0.30;0.30;;;;;;;8.59;100.00;95267.28;5050333;27;101826;-64
2022/04/25 02:46:45;;;;;;;0.40;0.40;;;;;;;8.59;100.00;95267.28;5067410;27;105248;-64
2022/04/25 02:49:15;;;;;;;0.63;0.20;;;;;;;8.61;100.00;95265.97;5051391;27;102765;-64
2022/04/25 02:51:44;;;;;;;0.87;0.30;;;;;;;8.62;100.00;95264.13;5055316;27;101788;-64
2022/04/25 02:54:10;;;;;;;0.27;0.20;;;;;;;8.66;100.00;95270.44;5050119;27;105094;-64
2022/04/25 02:56:38;;;;;;;0.30;0.30;;;;;;;8.65;100.00;95263.56;5051883;27;101802;-64
2022/04/25 02:59:06;;;;;;;0.20;0.20;;;;;;;8.66;100.00;95265.97;5050252;27;105379;-64
2022/04/25 03:01:34;;;;;;;0.30;0.30;;;;;;;8.64;100.00;95262.78;5049897;27;104958;-64
2022/04/25 03:04:01;;;;;;;0.33;0.30;;;;;;;8.67;100.00;95272.06;5067179;27;101859;-64
2022/04/25 03:06:30;;;;;;;0.30;0.30;;;;;;;8.70;100.00;95264.38;5067273;27;105320;-64
2022/04/25 03:08:57;;;;;;;0.20;0.20;;;;;;;8.70;100.00;95269.69;5049706;27;105270;-64
2022/04/25 03:11:25;;;;;;;0.30;0.20;;;;;;;8.72;100.00;95270.19;5050383;27;102226;-64
2022/04/25 03:13:52;;;;;;;0.13;0.13;;;;;;;8.75;100.00;95274.16;5070026;27;105306;-64
2022/04/25 03:16:20;;;;;;;0.30;0.30;;;;;;;8.77;100.00;95269.41;5051171;27;101782;-64
2022/04/25 03:18:48;;;;;;;0.20;0.20;;;;;;;8.79;100.00;95273.38;5051580;27;102436;-64
2022/04/25 03:21:16;;;;;;;0.20;0.20;;;;;;;8.81;100.00;95273.91;5086858;27;106041;-64
2022/04/25 03:23:44;;;;;;;0.30;0.30;;;;;;;8.79;100.00;95272.59;5070472;27;101988;-64
2022/04/25 03:26:11;;;;;;;0.37;0.37;;;;;;;8.80;100.00;95268.88;5070234;27;104788;-64
2022/04/25 03:28:38;;;;;;;0.20;0.20;;;;;;;8.80;100.00;95271.53;5071278;27;102593;-64
2022/04/25 03:31:08;;;;;;;0.30;0.30;;;;;;;8.77;100.00;95272.06;5070235;27;101923;-64
2022/04/25 03:33:36;;;;;;;0.30;0.30;;;;;;;8.79;100.00;95272.59;5087397;27;105702;-64
2022/04/25 03:36:04;;;;;;;0.20;0.20;;;;;;;8.79;100.00;95275.25;5073254;27;105643;-64
2022/04/25 03:38:31;;;;;;;0.20;0.20;;;;;;;8.78;100.00;95279.72;5070377;27;102986;-64
2022/04/25 03:41:01;;;;;;;0.20;0.20;;;;;;;8.78;100.00;95278.97;5069404;27;105886;-64
2022/04/25 03:43:28;;;;;;;0.23;0.23;;;;;;;8.76;100.00;95275.75;5070530;27;102288;-64
2022/04/25 03:45:56;;;;;;;0.20;0.20;;;;;;;8.78;100.00;95284.25;5070103;27;104161;-64
2022/04/25 03:48:23;;;;;;;1.03;0.30;;;;;;;8.79;100.00;95280.53;5069494;27;105457;-64
2022/04/25 03:50:50;;;;;;;0.40;0.40;;;;;;;8.76;100.00;95281.06;5070142;27;101894;-64
2022/04/25 03:53:17;;;;;;;0.30;0.30;;;;;;;8.77;100.00;95287.97;5069940;27;104883;-64
2022/04/25 03:58:32;;;;;;;0.50;0.20;;;;;;;8.79;100.00;95291.16;5038253;27;102011;-64
2022/04/25 04:00:59;;;;;;;0.23;0.20;;;;;;;8.79;100.00;95296.44;5069018;27;105412;-64
2022/04/25 04:03:26;;;;;;;0.30;0.30;;;;;;;8.79;100.00;95291.91;5069712;27;101821;-64
2022/04/25 04:05:55;;;;;;;0.30;0.30;;;;;;;8.80;100.00;95288.22;5071161;27;102471;-64
2022/04/25 04:08:23;;;;;;;0.50;0.30;;;;;;;8.82;100.00;95302.00;5069329;27;105961;-64
2022/04/25 04:10:50;;;;;;;0.37;0.30;;;;;;;8.84;100.00;95297.22;5069484;27;101961;-64
2022/04/25 04:13:17;;;;;;;0.87;0.30;;;;;;;8.85;100.00;95304.13;5069582;27;105938;-64
2022/04/25 04:15:47;;;;;;;1.13;0.40;;;;;;;8.87;100.00;95309.97;5086273;27;105361;-64
2022/04/25 04:18:14;;;;;;;0.37;0.30;;;;;;;8.87;100.00;95315.25;5073313;27;101963;-64
2022/04/25 04:20:41;;;;;;;0.23;0.23;;;;;;;8.91;100.00;95313.69;5085708;27;102743;-64
2022/04/25 04:23:08;;;;;;;0.27;0.27;;;;;;;8.91;100.00;95312.88;5089992;27;101809;-64
2022/04/25 04:25:36;;;;;;;0.20;0.20;;;;;;;8.93;100.00;95321.34;5091474;27;102905;-64
2022/04/25 04:28:06;;;;;;;0.30;0.30;;;;;;;8.91;100.00;95318.97;5072191;27;105816;-64
2022/04/25 04:30:33;;;;;;;0.30;0.30;;;;;;;8.93;100.00;95318.69;5091326;27;101824;-64
2022/04/25 04:33:02;;;;;;;0.30;0.30;;;;;;;8.92;100.00;95328.53;5067973;27;105334;-64
2022/04/25 04:38:28;;;;;;;0.20;0.20;;;;;;;8.96;100.00;95342.03;5026982;28;102493;-64
2022/04/25 04:40:55;;;;;;;0.20;0.20;;;;;;;8.96;100.00;95347.34;5013538;28;105652;-64
2022/04/25 04:43:23;;;;;;;0.20;0.20;;;;;;;8.94;100.00;95347.59;5028240;27;101848;-64
2022/04/25 04:45:49;;;;;;;0.40;0.40;;;;;;;8.96;100.00;95355.28;5051295;27;105597;-64
2022/04/25 04:48:18;;;;;;;0.40;0.40;;;;;;;8.94;100.00;95360.84;5051387;27;104159;-64
2022/04/25 04:50:45;;;;;;;0.40;0.40;;;;;;;8.98;100.00;95353.97;5052023;27;102194;-64
2022/04/25 04:53:12;;;;;;;0.70;0.30;;;;;;;8.99;100.00;95360.84;5070562;27;102596;-64
2022/04/25 04:55:38;;;;;;;0.30;0.30;;;;;;;9.01;100.00;95363.25;5068447;27;105334;-64
2022/04/25 04:58:05;;;;;;;0.40;0.40;;;;;;;9.02;100.00;95370.94;5068910;27;102095;-64
2022/04/25 05:00:33;;;;;;;0.40;0.40;;;;;;;9.05;100.00;95377.56;5069176;27;105595;-64
2022/04/25 05:03:00;;;;;;;0.40;0.40;;;;;;;9.07;100.00;95378.09;5054892;27;105364;-64
2022/04/25 05:05:29;;;;;;;0.57;0.53;;;;;;;9.05;100.00;95386.31;5051741;27;103782;-64
2022/04/25 05:07:56;;;;;;;0.77;0.53;;;;;;;9.08;100.00;95392.94;5051216;27;105802;-64
2022/04/25 05:10:23;;;;;;;0.60;0.60;;;;;;;9.08;100.00;95390.28;5051602;27;101889;-64
2022/04/25 05:12:53;;;;;;;0.70;0.70;;;;;;;9.12;100.00;95391.34;5068681;27;105338;-64
2022/04/25 05:15:21;;;;;;;0.60;0.57;;;;;;;9.12;100.00;95396.66;5051337;27;106430;-64
2022/04/25 05:17:49;;;;;;;0.80;0.50;;;;;;;9.15;100.00;95398.78;5068472;27;101868;-64
2022/04/25 05:20:18;;;;;;;0.47;0.40;;;;;;;9.17;100.00;95399.31;5069826;27;102907;-64
2022/04/25 05:22:49;;;;;;;0.40;0.40;;;;;;;9.17;100.00;95396.66;5068175;27;104979;-64
2022/04/25 05:25:18;;;;;;;0.40;0.40;;;;;;;9.20;100.00;95409.38;5055402;27;101829;-64
2022/04/25 05:27:47;;;;;;;0.50;0.50;;;;;;;9.23;100.00;95414.16;5050877;27;105070;-64
2022/04/25 05:30:15;;;;;;;0.47;0.47;;;;;;;9.25;100.00;95417.34;5051703;27;102202;-64
2022/04/25 05:32:43;;;;;;;1.00;0.50;;;;;;;9.26;100.00;95421.63;5070163;27;102820;-64
2022/04/25 05:35:11;;;;;;;0.70;0.70;;;;;;;9.27;100.00;95428.50;5067816;27;105627;-64
2022/04/25 05:37:39;;;;;;;0.77;0.53;;;;;;;9.27;100.00;95428.50;5051325;27;101928;-64
2022/04/25 05:40:09;;;;;;;0.57;0.57;;;;;;;9.30;100.00;95423.47;5051614;27;106401;-64
2022/04/25 05:42:36;;;;;;;0.50;0.50;;;;;;;9.31;100.00;95433.00;5069033;27;104293;-64
2022/04/25 05:45:05;;;;;;;0.50;0.50;;;;;;;9.29;100.00;95434.34;5069517;27;101942;-64
2022/04/25 05:47:33;;;;;;;0.50;0.50;;;;;;;9.26;100.00;95435.66;5054122;27;104006;-64
2022/04/25 05:52:45;;;;;;;0.50;0.50;;;;;;;8.98;100.00;95454.72;5068255;27;105242;-64
2022/04/25 05:55:14;;;;;;;0.60;0.60;;;;;;;8.90;100.00;95451.78;5050582;27;103811;-64
2022/04/25 05:57:41;;;;;;;0.60;0.50;;;;;;;8.87;100.00;95457.59;5052534;27;101957;-64
2022/04/25 06:00:11;;;;;;;1.20;0.60;;;;;;;8.94;100.00;95463.47;5073150;27;101711;-64
2022/04/25 06:02:42;;;;;;;0.60;0.60;;;;;;;8.91;100.00;95466.63;5054182;27;105693;-64
2022/04/25 06:05:11;;;;;;;0.70;0.70;;;;;;;8.88;100.00;95475.13;5072440;27;101909;-64
2022/04/25 06:07:40;;;;;;;0.63;0.63;;;;;;;8.87;100.00;95469.03;5072919;27;103905;-64
2022/04/25 06:10:09;;;;;;;0.50;0.50;;;;;;;8.86;100.00;95471.91;5075671;27;101817;-64
2022/04/25 06:12:41;;;;;;;1.90;0.70;;;;;;;8.86;100.00;95478.03;5054665;27;104800;-64
2022/04/25 06:15:09;;;;;;;0.90;0.90;;;;;;;8.90;100.00;95481.72;5053766;27;105743;-64
2022/04/25 06:17:37;;;;;;;1.03;0.80;;;;;;;8.89;100.00;95487.31;5054583;27;102237;-64
2022/04/25 06:20:06;;;;;;;1.37;0.63;;;;;;;8.91;100.00;95493.97;5039782;27;105243;-64
2022/04/25 06:22:33;;;;;;;0.60;0.60;;;;;;;9.00;100.00;95489.72;5030126;28;104090;-64
2022/04/25 06:25:00;;;;;;;0.60;0.60;;;;;;;9.03;100.00;95489.19;5047767;27;101871;-64
2022/04/25 06:27:27;;;;;;;0.53;0.53;;;;;;;9.07;100.00;95492.94;5032043;28;102387;-64
2022/04/25 06:29:56;;;;;;;0.50;0.50;;;;;;;9.14;100.00;95497.97;5050055;27;105164;-64
2022/04/25 06:32:24;;;;;;;0.50;0.50;;;;;;;9.18;100.00;95497.19;5030242;28;105303;-64
2022/04/25 06:34:52;;;;;;;0.50;0.50;;;;;;;9.22;100.00;95500.91;5030746;28;104160;-64
2022/04/25 06:37:19;;;;;;;0.50;0.50;;;;;;;9.26;100.00;95499.31;5031528;28;101791;-64
2022/04/25 06:39:46;;;;;;;0.53;0.53;;;;;;;9.38;100.00;95497.19;5030240;28;106687;-64
2022/04/25 06:42:12;;;;;;;0.60;0.60;;;;;;;9.44;100.00;95498.81;5046353;27;106458;-64
2022/04/25 06:44:40;;;;;;;0.60;0.60;;;;;;;9.51;100.00;95494.03;5030095;28;101839;-64
2022/04/25 06:47:08;;;;;;;0.80;0.63;;;;;;;9.66;100.00;95495.91;5029694;28;105741;-64
2022/04/25 06:49:36;;;;;;;0.70;0.70;;;;;;;9.71;100.00;95491.38;5046385;27;105028;-64
2022/04/25 06:52:05;;;;;;;0.77;0.77;;;;;;;9.76;100.00;95496.69;5050605;27;101929;-64
2022/04/25 06:54:33;;;;;;;0.60;0.60;;;;;;;9.80;100.00;95504.91;5029460;28;105606;-64
2022/04/25 06:57:01;;;;;;;0.70;0.70;;;;;;;9.83;100.00;95515.00;5031364;27;102104;-64
2022/04/25 06:59:28;;;;;;;0.83;0.83;;;;;;;9.90;100.00;95510.22;5030230;28;105138;-64
2022/04/25 07:01:56;;;;;;;1.63;0.93;;;;;;;9.95;100.00;95508.38;5046502;27;105079;-64
2022/04/25 07:04:25;;;;;;;1.83;1.30;;;;;;;10.02;100.00;95508.88;5029842;28;101868;-64
2022/04/25 07:06:52;;;;;;;1.10;1.10;;;;;;;10.06;100.00;95514.47;5029562;28;105128;-64
2022/04/25 07:09:19;;;;;;;1.40;1.30;;;;;;;10.14;100.00;95516.59;5045637;27;104340;-64
2022/04/25 07:11:47;;;;;;;1.53;1.43;;;;;;;10.23;100.00;95509.66;5047012;27;102065;-64
2022/04/25 07:14:15;;;;;;;1.70;1.60;;;;;;;10.25;100.00;95512.88;5032984;28;104053;-64
2022/04/25 07:16:45;;;;;;;1.70;1.60;;;;;;;10.37;100.00;95516.81;5029599;28;101842;-64
2022/04/25 07:19:12;;;;;;;1.80;1.70;;;;;;;10.62;100.00;95514.06;5034776;27;105603;-64
2022/04/25 07:29:53;;;;;;;2.97;2.70;;;;;;;10.89;100.00;95521.69;5069997;27;105920;-64
2022/04/25 07:32:20;;;;;;;4.03;3.63;;;;;;;10.87;100.00;95526.47;5053247;27;101894;-64
2022/04/25 07:34:48;;;;;;;3.43;2.70;;;;;;;10.86;100.00;95519.56;5053047;27;105393;-64
2022/04/25 07:37:18;;;;;;;3.37;3.00;;;;;;;11.02;100.00;95521.09;5073167;27;105262;-64
2022/04/25 07:39:46;;;;;;;3.50;3.20;;;;;;;11.01;100.00;95533.59;5071544;27;102419;-64
2022/04/25 07:42:15;;;;;;;4.23;3.30;;;;;;;11.07;100.00;95521.06;5052514;27;105842;-64
2022/04/25 07:44:42;;;;;;;3.60;3.30;;;;;;;11.03;100.00;95528.81;5053259;27;101919;-64
2022/04/25 07:47:10;;;;;;;3.70;3.40;;;;;;;11.03;100.00;95525.34;5052530;27;105799;-64
2022/04/25 07:49:36;;;;;;;4.20;3.20;;;;;;;11.27;100.00;95528.94;5070522;27;102483;-64
2022/04/25 07:52:04;;;;;;;4.90;3.73;;;;;;;11.06;100.00;95527.47;5053201;27;101975;-64
2022/04/25 07:54:33;;;;;;;3.90;3.50;;;;;;;11.12;100.00;95529.03;5070012;27;105200;-64
2022/04/25 07:57:00;;;;;;;3.70;3.40;;;;;;;10.96;100.00;95530.94;5052349;27;105014;-64
2022/04/25 07:59:27;;;;;;;4.20;3.73;;;;;;;10.92;100.00;95535.25;5056158;27;101922;-64
2022/04/25 08:01:54;;;;;;;4.50;4.10;;;;;;;11.34;100.00;95532.09;5070606;27;102873;-64
2022/04/25 08:04:21;;;;;;;4.00;3.67;;;;;;;11.50;100.00;95552.25;5071255;27;101778;-64
2022/04/25 08:06:48;;;;;;;4.80;4.20;;;;;;;11.43;100.00;95536.56;5052577;27;105177;-64
2022/04/25 08:09:16;;;;;;;4.77;4.20;;;;;;;11.68;100.00;95539.09;5051960;27;105458;-64
2022/04/25 08:11:45;;;;;;;4.70;4.10;;;;;;;11.83;100.00;95538.97;5069614;27;101894;-64
2022/04/25 08:19:41;;;;;;;3.80;3.50;;;;;;;11.69;100.00;95545.19;5071154;27;101903;-64
2022/04/25 08:22:10;;;;;;;3.80;3.53;;;;;;;12.06;100.00;95540.13;5051909;27;105950;-64
2022/04/25 08:24:37;;;;;;;3.80;3.50;;;;;;;12.28;100.00;95551.13;5069086;27;101874;-64
2022/04/25 08:27:06;;;;;;;3.73;3.40;;;;;;;12.19;100.00;95550.13;5070756;27;102625;-64
2022/04/25 08:29:33;;;;;;;4.13;3.60;;;;;;;12.22;100.00;95538.91;5051822;27;105374;-64
2022/04/25 08:32:01;;;;;;;3.77;3.47;;;;;;;12.41;100.00;95558.44;5052383;27;101984;-64
2022/04/25 08:34:28;;;;;;;4.13;3.40;;;;;;;12.48;100.00;95548.25;5068825;27;104946;-64
2022/04/25 08:36:55;;;;;;;3.77;3.37;;;;;;;12.77;100.00;95554.34;5070178;27;102630;-64
2022/04/25 08:39:22;;;;;;;3.53;3.23;;;;;;;12.71;100.00;95552.81;5052224;27;101987;-64
2022/04/25 08:41:54;;;;;;;3.87;3.57;;;;;;;12.64;100.00;95555.03;5055160;27;104948;-64
2022/04/25 08:44:24;;;;;;;3.93;3.30;;;;;;;12.54;100.00;95550.56;5069365;27;101872;-64
2022/04/25 08:46:55;;;;;;;3.50;3.20;;;;;;;12.81;100.00;95555.38;5051937;27;104758;-64
2022/04/25 08:49:22;;;;;;;3.93;3.63;;;;;;;12.68;100.00;95548.03;5068614;27;105045;-64
2022/04/25 08:51:58;;;;;;;3.87;3.57;;;;;;;13.03;100.00;95558.34;5053055;27;101900;-64
2022/04/25 08:54:26;;;;;;;3.90;3.60;;;;;;;12.77;100.00;95557.00;5071517;27;104840;-64
2022/04/25 08:56:53;;;;;;;3.10;2.90;;;;;;;12.47;100.00;95557.31;5070863;27;105145;-64
2022/04/25 08:59:24;;;;;;;3.60;3.30;;;;;;;12.51;100.00;95547.69;5070461;27;102013;-64
2022/04/25 09:01:51;;;;;;;3.40;3.10;;;;;;;12.37;100.00;95560.09;5070857;27;105140;-64
2022/04/25 09:04:18;;;;;;;3.40;3.20;;;;;;;12.43;100.00;95557.09;5073810;27;105372;-64
2022/04/25 09:06:46;;;;;;;3.70;3.00;;;;;;;12.57;100.00;95566.03;5068031;27;105148;-64
2022/04/25 09:09:14;;;;;;;3.37;3.10;;;;;;;12.65;100.00;95562.72;5069918;27;105050;-64
2022/04/25 09:14:27;;;;;;;3.90;3.60;;;;;;;12.68;100.00;95559.50;5085358;27;105805;-64
2022/04/25 09:16:55;;;;;;;3.90;3.60;;;;;;;12.83;100.00;95561.22;5069756;27;105853;-64
2022/04/25 09:19:22;;;;;;;3.73;3.43;;;;;;;13.11;100.00;95563.03;5062608;27;102002;-64
2022/04/25 09:21:50;;;;;;;4.30;3.30;;;;;;;13.64;100.00;95557.28;5047129;27;103956;-64
2022/04/25 09:24:25;;;;;;;3.40;3.10;;;;;;;13.49;100.00;95564.69;5043571;27;105741;-64
2022/04/25 09:26:53;;;;;;;3.87;3.30;;;;;;;13.42;100.00;95564.25;5050091;27;103142;-64
2022/04/25 09:29:29;;;;;;;3.50;3.20;;;;;;;13.46;100.00;95558.03;5046014;27;105081;-64
2022/04/25 09:31:56;;;;;;;5.60;3.70;;;;;;;13.65;100.00;95552.69;5050324;27;101894;-64
2022/04/25 09:37:08;;;;;;;3.60;3.30;;;;;;;14.09;100.00;95569.13;5048691;27;105446;-63
2022/04/25 09:39:36;;;;;;;2.97;2.77;;;;;;;13.74;100.00;95567.78;5047604;27;102484;-64
2022/04/25 09:42:05;;;;;;;3.70;3.40;;;;;;;13.52;100.00;95574.81;5050254;27;105456;-64
2022/04/25 09:44:56;;;;;;;3.60;3.30;;;;;;;13.42;100.00;95575.72;5049722;27;105061;-64
2022/04/25 09:47:27;;;;;;;3.40;3.10;;;;;;;13.56;100.00;95567.78;5050727;27;102005;-64
2022/04/25 09:50:02;;;;;;;3.33;3.13;;;;;;;13.67;100.00;95571.91;5054613;27;105226;-64
2022/04/25 09:52:31;;;;;;;2.90;2.70;;;;;;;13.63;100.00;95581.59;5049829;27;101906;-64
2022/04/25 09:55:11;;;;;;;2.97;2.77;;;;;;;13.39;100.00;95588.84;5051492;27;105524;-64
2022/04/25 09:57:38;;;;;;;3.83;2.97;;;;;;;12.73;100.00;95593.31;5051898;27;103409;-64
2022/04/25 10:00:08;;;;;;;3.87;3.47;;;;;;;11.78;100.00;95607.47;5052647;27;101886;-64
2022/04/25 10:02:43;;;;;;;3.10;2.90;;;;;;;11.61;100.00;95599.06;5051469;27;105665;-64
2022/04/25 10:05:17;;;;;;;3.60;3.30;;;;;;;11.62;100.00;95605.97;5051814;27;102106;-64
2022/04/25 10:07:46;;;;;;;3.43;3.13;;;;;;;11.88;100.00;95591.44;5051201;27;101785;-64
2022/04/25 10:10:14;;;;;;;3.17;2.87;;;;;;;11.98;100.00;95586.00;5051393;27;102782;-64
2022/04/25 10:12:41;;;;;;;3.50;3.30;;;;;;;12.22;100.00;95586.88;5053863;27;103832;-64
2022/04/25 10:15:10;;;;;;;3.37;3.17;;;;;;;12.50;100.00;95594.09;5051384;27;103978;-64
2022/04/25 10:17:39;;;;;;;3.57;3.37;;;;;;;12.55;100.00;95602.88;5050577;27;105862;-64
2022/04/25 10:20:09;;;;;;;3.70;3.40;;;;;;;13.05;100.00;95594.34;5050532;27;101941;-64
2022/04/25 10:22:36;;;;;;;3.90;3.60;;;;;;;13.26;100.00;95592.22;5050996;27;103901;-64
2022/04/25 10:25:04;;;;;;;3.93;3.63;;;;;;;13.56;100.00;95595.31;5050318;27;106493;-64
2022/04/25 10:27:35;;;;;;;5.30;3.60;;;;;;;13.85;100.00;95587.16;5050839;27;102001;-64
2022/04/25 10:30:09;;;;;;;3.73;3.50;;;;;;;13.85;100.00;95587.16;5052375;27;102335;-64
2022/04/25 10:32:38;;;;;;;3.70;3.40;;;;;;;13.53;100.00;95595.09;5053535;27;105446;-64
2022/04/25 10:35:12;;;;;;;4.70;4.30;;;;;;;13.87;100.00;95601.00;5052044;27;102411;-64
2022/04/25 10:37:41;;;;;;;3.97;3.67;;;;;;;14.12;100.00;95585.38;5051278;27;104740;-64
2022/04/25 10:40:09;;;;;;;4.27;3.87;;;;;;;14.14;100.00;95585.09;5050448;27;101969;-64
2022/04/25 10:45:55;;;;;;;4.27;3.93;;;;;;;14.75;100.00;95583.81;5050110;27;105949;-64
2022/04/25 10:48:23;;;;;;;4.40;4.00;;;;;;;14.90;100.00;95577.38;5052012;27;102133;-64
2022/04/25 10:51:09;;;;;;;3.60;3.30;;;;;;;14.60;100.00;95586.75;5050652;27;104262;-64
2022/04/25 10:53:59;;;;;;;3.90;3.50;;;;;;;14.33;100.00;95596.59;5051520;27;102558;-64
2022/04/25 10:56:27;;;;;;;3.80;3.50;;;;;;;13.92;100.00;95592.91;5055233;27;101942;-64
2022/04/25 10:59:23;;;;;;;4.30;3.90;;;;;;;13.48;100.00;95601.31;5051312;27;102502;-64
2022/04/25 11:01:50;;;;;;;4.57;4.17;;;;;;;13.10;100.00;95604.16;5051741;27;101840;-64
2022/04/25 11:04:19;;;;;;;4.67;4.27;;;;;;;13.07;100.00;95602.84;5033210;27;105621;-64
2022/04/25 11:06:47;;;;;;;6.47;5.50;;;;;;;13.04;100.00;95606.09;5049435;27;105519;-64
2022/04/25 11:09:38;;;;;;;4.53;4.20;;;;;;;13.21;100.00;95606.44;5050153;27;101974;-64
2022/04/25 11:12:05;;;;;;;5.27;4.87;;;;;;;13.56;100.00;95605.97;5049937;27;105474;-64
2022/04/25 11:14:32;;;;;;;4.97;4.57;;;;;;;14.07;100.00;95600.72;5049516;27;105074;-64
2022/04/25 11:17:11;;;;;;;4.60;4.30;;;;;;;14.25;100.00;95599.91;5051390;27;101731;-64
2022/04/25 11:19:56;;;;;;;4.63;4.27;;;;;;;14.39;100.00;95600.78;5052548;27;104794;-64
2022/04/25 11:22:32;;;;;;;5.07;4.67;;;;;;;14.63;100.00;95598.75;5049961;27;102011;-64
2022/04/25 11:25:39;;;;;;;4.70;4.30;;;;;;;14.26;100.00;95612.19;5051262;27;104262;-64
2022/04/25 11:28:08;;;;;;;4.73;4.33;;;;;;;13.98;100.00;95615.81;5050546;27;103108;-64
2022/04/25 11:30:37;;;;;;;4.67;4.27;;;;;;;13.56;100.00;95618.53;5049697;27;101948;-64
2022/04/25 11:33:05;;;;;;;4.00;3.70;;;;;;;13.20;100.00;95618.19;5049824;27;104989;-64
2022/04/25 11:35:34;;;;;;;3.87;3.57;;;;;;;13.32;100.00;95617.78;5050697;27;102822;-64
2022/04/25 11:38:02;;;;;;;3.00;2.80;;;;;;;13.49;100.00;95623.44;5049635;27;101972;-64
2022/04/25 11:40:29;;;;;;;3.33;3.07;;;;;;;14.18;100.00;95615.53;5049442;27;105815;-64
2022/04/25 11:42:59;;;;;;;3.37;3.07;;;;;;;14.02;100.00;95616.84;5054227;27;102984;-64
2022/04/25 11:45:28;;;;;;;2.97;2.77;;;;;;;13.98;100.00;95621.16;5050873;27;102765;-64
2022/04/25 11:47:57;;;;;;;3.10;2.90;;;;;;;13.96;100.00;95626.78;5050038;27;104151;-64
2022/04/25 11:50:23;;;;;;;3.30;3.10;;;;;;;14.26;100.00;95629.06;5033082;27;102007;-64
2022/04/25 11:52:55;;;;;;;3.80;3.50;;;;;;;14.54;100.00;95629.94;5049268;27;106543;-64
2022/04/25 11:55:33;;;;;;;3.87;3.57;;;;;;;14.51;100.00;95622.50;5048847;27;104219;-64
2022/04/25 11:58:00;;;;;;;3.57;3.37;;;;;;;15.70;100.00;95621.31;5049289;27;101836;-64
2022/04/25 12:00:27;;;;;;;4.73;4.33;;;;;;;15.56;100.00;95617.84;5049628;27;105619;-65
2022/04/25 12:02:54;;;;;;;4.20;3.87;;;;;;;15.13;100.00;95621.91;5050385;27;102566;-62